Time;durP1;ratioP1;P1;durP2;ratioP2;P2;SDS_P1;SDS_P2;PMS_P1;PMS_P2;Temp;Humidity;BMP_temperature;BMP_pressure;BME280_temperature;BME280_humidity;BME280_pressure;Samples;Min_cycle;Max_cycle;Signal;HPM_P1;HPM_P2
2022/11/07 00:02:00;;;;;;;;;2.00;2.00;;;;;;;;5120505;27;9012;-76
2022/11/07 00:04:28;;;;;;;;;2.00;2.00;;;;;;;;5102767;27;8956;-77
2022/11/07 00:06:56;;;;;;;;;5.75;2.50;;;;;;;;5124808;27;9070;-77
2022/11/07 00:09:25;;;;;;;;;5.75;2.75;;;;;;;;5120211;27;8875;-77
2022/11/07 00:11:53;;;;;;;;;3.25;2.75;;;;;;;;5105177;27;9021;-77
2022/11/07 00:14:21;;;;;;;;;4.67;3.00;;;;;;;;5123671;27;8860;-78
2022/11/07 00:16:49;;;;;;;;;3.75;2.75;;;;;;;;5103859;27;8997;-78
2022/11/07 00:19:18;;;;;;;;;4.50;1.75;;;;;;;;5122809;27;8844;-78
2022/11/07 00:21:46;;;;;;;;;4.50;3.25;;;;;;;;5124115;27;9644;-77
2022/11/07 00:24:16;;;;;;;;;1.75;1.00;;;;;;;;5120825;27;8848;-77
2022/11/07 00:26:45;;;;;;;;;5.33;2.33;;;;;;;;5123792;27;8839;-78
2022/11/07 00:29:14;;;;;;;;;5.00;2.00;;;;;;;;5126739;27;8936;-77
2022/11/07 00:31:41;;;;;;;;;3.00;1.67;;;;;;;;5124964;27;9143;-77
2022/11/07 00:34:09;;;;;;;;;3.00;1.00;;;;;;;;5105493;27;8998;-77
2022/11/07 00:36:36;;;;;;;;;1.00;1.00;;;;;;;;5124407;27;9022;-75
2022/11/07 00:39:04;;;;;;;;;1.67;1.67;;;;;;;;5107079;27;8952;-77
2022/11/07 00:41:32;;;;;;;;;2.33;2.33;;;;;;;;5105221;27;8936;-77
2022/11/07 00:44:01;;;;;;;;;2.00;2.00;;;;;;;;5122738;27;9056;-77
2022/11/07 00:46:29;;;;;;;;;3.00;3.00;;;;;;;;5120484;27;8858;-77
2022/11/07 00:48:56;;;;;;;;;1.33;1.33;;;;;;;;5122964;27;8955;-78
2022/11/07 00:51:25;;;;;;;;;4.00;1.50;;;;;;;;5122279;27;8925;-77
2022/11/07 00:53:53;;;;;;;;;4.67;3.00;;;;;;;;5120367;27;8840;-78
2022/11/07 00:56:22;;;;;;;;;4.67;1.33;;;;;;;;5125305;27;9022;-77
2022/11/07 00:58:53;;;;;;;;;2.00;2.00;;;;;;;;5126165;27;9208;-77
2022/11/07 01:01:24;;;;;;;;;2.00;1.50;;;;;;;;5125494;27;9736;-78
2022/11/07 01:06:38;;;;;;;;;5.00;3.00;;;;;;;;5125580;27;8896;-77
2022/11/07 01:09:06;;;;;;;;;5.00;2.00;;;;;;;;5125502;27;9084;-78
2022/11/07 01:11:35;;;;;;;;;2.33;2.00;;;;;;;;5127134;27;9062;-78
2022/11/07 01:14:03;;;;;;;;;2.33;1.67;;;;;;;;5126868;27;9057;-77
2022/11/07 01:16:44;;;;;;;;;4.00;3.00;;;;;;;;5127099;27;9010;-77
2022/11/07 01:19:13;;;;;;;;;1.00;1.00;;;;;;;;5127996;27;9183;-78
2022/11/07 01:21:42;;;;;;;;;3.00;1.00;;;;;;;;5104950;27;9015;-77
2022/11/07 01:24:11;;;;;;;;;3.00;3.00;;;;;;;;5107277;27;8999;-77
2022/11/07 01:26:40;;;;;;;;;2.00;2.00;;;;;;;;5131795;27;9080;-77
2022/11/07 01:29:07;;;;;;;;;3.00;1.67;;;;;;;;5126337;27;9105;-78
2022/11/07 01:31:36;;;;;;;;;6.00;3.00;;;;;;;;5128060;27;9085;-78
2022/11/07 01:34:04;;;;;;;;;1.00;1.00;;;;;;;;5126052;27;9173;-77
2022/11/07 01:36:32;;;;;;;;;6.33;2.33;;;;;;;;5128472;27;9098;-77
2022/11/07 01:38:59;;;;;;;;;2.00;2.00;;;;;;;;5090587;27;9205;-77
2022/11/07 01:41:28;;;;;;;;;3.67;2.67;;;;;;;;5106594;27;9349;-77
2022/11/07 01:43:59;;;;;;;;;2.00;2.00;;;;;;;;5128816;27;8927;-77
2022/11/07 01:46:30;;;;;;;;;3.00;1.67;;;;;;;;5122984;27;9016;-78
2022/11/07 01:49:06;;;;;;;;;4.00;2.33;;;;;;;;5128841;27;8998;-78
2022/11/07 01:51:36;;;;;;;;;3.00;1.33;;;;;;;;5128666;27;8984;-77
2022/11/07 01:54:04;;;;;;;;;3.67;2.67;;;;;;;;5127208;27;8927;-78
2022/11/07 01:56:34;;;;;;;;;1.67;1.67;;;;;;;;5103211;27;8958;-78
2022/11/07 01:59:03;;;;;;;;;4.67;2.67;;;;;;;;5126792;27;8994;-76
2022/11/07 02:01:30;;;;;;;;;2.67;1.33;;;;;;;;5123881;27;9023;-77
2022/11/07 02:04:01;;;;;;;;;5.00;2.00;;;;;;;;5106922;27;9642;-79
2022/11/07 02:06:36;;;;;;;;;5.67;3.00;;;;;;;;5082809;28;9042;-77
2022/11/07 02:09:03;;;;;;;;;2.00;2.00;;;;;;;;5086637;28;9170;-78
2022/11/07 02:11:31;;;;;;;;;4.33;2.33;;;;;;;;5082849;28;9142;-78
2022/11/07 02:13:59;;;;;;;;;4.00;3.00;;;;;;;;5084337;28;9108;-78
2022/11/07 02:16:26;;;;;;;;;3.33;2.00;;;;;;;;5080248;28;8853;-78
2022/11/07 02:18:54;;;;;;;;;3.33;1.67;;;;;;;;5083519;28;9013;-79
2022/11/07 02:21:34;;;;;;;;;2.00;2.00;;;;;;;;5087431;28;8924;-78
2022/11/07 02:24:19;;;;;;;;;2.00;2.00;;;;;;;;5079791;28;9010;-78
2022/11/07 02:26:47;;;;;;;;;2.00;2.00;;;;;;;;5083319;28;9179;-77
2022/11/07 02:29:15;;;;;;;;;2.00;2.00;;;;;;;;5081424;28;9039;-78
2022/11/07 02:31:42;;;;;;;;;2.67;1.00;;;;;;;;5082823;28;9193;-77
2022/11/07 02:34:10;;;;;;;;;4.00;2.00;;;;;;;;5081803;28;9010;-77
2022/11/07 02:36:37;;;;;;;;;4.00;1.67;;;;;;;;5080362;28;9009;-78
2022/11/07 02:39:05;;;;;;;;;2.67;2.67;;;;;;;;5079652;28;9069;-78
2022/11/07 02:41:36;;;;;;;;;3.67;2.67;;;;;;;;5082514;28;9004;-77
2022/11/07 02:44:04;;;;;;;;;1.67;1.67;;;;;;;;5082913;28;8935;-78
2022/11/07 02:46:33;;;;;;;;;5.67;1.33;;;;;;;;5079111;28;8916;-78
2022/11/07 02:49:02;;;;;;;;;3.00;3.00;;;;;;;;5079177;28;8982;-77
2022/11/07 02:51:29;;;;;;;;;5.00;2.00;;;;;;;;5081001;28;9745;-77
2022/11/07 02:53:57;;;;;;;;;1.00;1.00;;;;;;;;5081975;28;9862;-77
2022/11/07 02:56:25;;;;;;;;;4.33;2.67;;;;;;;;5079925;28;9753;-77
2022/11/07 02:58:54;;;;;;;;;4.00;2.00;;;;;;;;5077886;28;9016;-78
2022/11/07 03:01:22;;;;;;;;;1.00;1.00;;;;;;;;5078906;28;9000;-77
2022/11/07 03:03:51;;;;;;;;;2.67;2.33;;;;;;;;5074537;28;8843;-78
2022/11/07 03:06:20;;;;;;;;;0.67;0.67;;;;;;;;5115837;27;9150;-78
2022/11/07 03:08:48;;;;;;;;;8.33;3.00;;;;;;;;5125544;27;8897;-77
2022/11/07 03:11:18;;;;;;;;;3.00;2.00;;;;;;;;5087117;27;9114;-78
2022/11/07 03:13:47;;;;;;;;;1.67;1.67;;;;;;;;5122225;27;9015;-77
2022/11/07 03:16:17;;;;;;;;;2.25;1.25;;;;;;;;5120500;27;8947;-78
2022/11/07 03:18:44;;;;;;;;;5.00;2.00;;;;;;;;5123732;27;8836;-77
2022/11/07 03:21:12;;;;;;;;;1.25;0.75;;;;;;;;5124208;27;8938;-77
2022/11/07 03:23:40;;;;;;;;;3.00;3.00;;;;;;;;5123936;27;8868;-77
2022/11/07 03:26:07;;;;;;;;;1.75;1.75;;;;;;;;5123471;27;9016;-77
2022/11/07 03:28:35;;;;;;;;;3.50;2.00;;;;;;;;5103925;27;8946;-77
2022/11/07 03:31:04;;;;;;;;;5.00;1.75;;;;;;;;5122763;27;8852;-77
2022/11/07 03:33:35;;;;;;;;;1.50;1.50;;;;;;;;5117185;27;8851;-77
2022/11/07 03:36:03;;;;;;;;;5.00;2.00;;;;;;;;5118961;27;8873;-77
2022/11/07 03:38:32;;;;;;;;;2.67;2.00;;;;;;;;5121915;27;9641;-77
2022/11/07 03:40:59;;;;;;;;;1.67;1.00;;;;;;;;5102135;27;9080;-77
2022/11/07 03:43:27;;;;;;;;;1.75;1.75;;;;;;;;5102252;27;8942;-78
2022/11/07 03:45:54;;;;;;;;;1.00;1.00;;;;;;;;5104440;27;8830;-77
2022/11/07 03:48:22;;;;;;;;;3.25;2.00;;;;;;;;5123285;27;8911;-78
2022/11/07 03:50:51;;;;;;;;;3.75;1.00;;;;;;;;5123619;27;8848;-77
2022/11/07 03:53:18;;;;;;;;;2.00;2.00;;;;;;;;5121327;27;8876;-79
2022/11/07 03:55:47;;;;;;;;;3.75;1.00;;;;;;;;5126823;27;8841;-77
2022/11/07 03:58:15;;;;;;;;;2.00;2.00;;;;;;;;5104129;27;8838;-77
2022/11/07 04:00:43;;;;;;;;;1.67;1.67;;;;;;;;5103986;27;9118;-77
2022/11/07 04:03:11;;;;;;;;;2.00;2.00;;;;;;;;5104689;27;8964;-77
2022/11/07 04:05:39;;;;;;;;;2.00;2.00;;;;;;;;5120644;27;8852;-77
2022/11/07 04:08:09;;;;;;;;;1.00;1.00;;;;;;;;5124407;27;8877;-78
2022/11/07 04:10:37;;;;;;;;;1.50;1.00;;;;;;;;5123917;27;8933;-79
2022/11/07 04:18:34;;;;;;;;;3.50;3.00;;;;;;;;5122717;27;8842;-77
2022/11/07 04:21:02;;;;;;;;;3.50;2.25;;;;;;;;5123667;27;8865;-77
2022/11/07 04:23:32;;;;;;;;;5.75;2.00;;;;;;;;5105029;27;8840;-77
2022/11/07 04:28:45;;;;;;;;;2.50;2.50;;;;;;;;5124568;27;8808;-78
2022/11/07 04:31:12;;;;;;;;;3.75;2.00;;;;;;;;5103563;27;8848;-78
2022/11/07 04:33:40;;;;;;;;;3.67;2.33;;;;;;;;5130712;27;8840;-78
2022/11/07 04:36:08;;;;;;;;;2.00;2.00;;;;;;;;5107861;27;8940;-76
2022/11/07 04:38:37;;;;;;;;;2.00;2.00;;;;;;;;5124811;27;8960;-77
2022/11/07 04:41:05;;;;;;;;;1.50;1.50;;;;;;;;5126572;27;8838;-78
2022/11/07 04:43:33;;;;;;;;;3.50;2.25;;;;;;;;5110109;27;8841;-78
2022/11/07 04:46:03;;;;;;;;;2.25;1.50;;;;;;;;5125828;27;8968;-77
2022/11/07 04:48:31;;;;;;;;;4.50;2.00;;;;;;;;5128099;27;8844;-78
2022/11/07 04:50:58;;;;;;;;;4.75;2.00;;;;;;;;5109171;27;8823;-77
2022/11/07 04:53:26;;;;;;;;;1.50;1.50;;;;;;;;5125716;27;8934;-77
2022/11/07 04:55:55;;;;;;;;;3.00;3.00;;;;;;;;5127223;27;8844;-77
2022/11/07 04:58:22;;;;;;;;;2.00;2.00;;;;;;;;5128711;27;8933;-77
2022/11/07 05:00:50;;;;;;;;;3.00;1.25;;;;;;;;5105959;27;8836;-77
2022/11/07 05:03:17;;;;;;;;;3.00;3.00;;;;;;;;5127927;27;8827;-77
2022/11/07 05:05:45;;;;;;;;;2.25;2.25;;;;;;;;5094815;28;8933;-77
2022/11/07 05:08:13;;;;;;;;;6.75;1.25;;;;;;;;5088418;28;8844;-77
2022/11/07 05:10:40;;;;;;;;;3.00;1.50;;;;;;;;5087579;28;8847;-77
2022/11/07 05:13:09;;;;;;;;;3.00;2.50;;;;;;;;5091606;28;8842;-77
2022/11/07 05:15:37;;;;;;;;;3.33;2.33;;;;;;;;5083928;28;9616;-77
2022/11/07 05:18:05;;;;;;;;;2.25;2.00;;;;;;;;5084830;28;8946;-78
2022/11/07 05:20:35;;;;;;;;;2.75;2.00;;;;;;;;5083975;28;8846;-78
2022/11/07 05:23:18;;;;;;;;;3.25;3.25;;;;;;;;5088985;28;9587;-78
2022/11/07 05:25:47;;;;;;;;;5.00;2.00;;;;;;;;5089103;28;9709;-76
2022/11/07 05:28:18;;;;;;;;;1.00;1.00;;;;;;;;5090600;28;8983;-77
2022/11/07 05:30:46;;;;;;;;;5.75;2.25;;;;;;;;5087742;28;8906;-77
2022/11/07 05:33:15;;;;;;;;;3.75;2.00;;;;;;;;5088857;28;8884;-77
2022/11/07 05:35:43;;;;;;;;;2.00;2.00;;;;;;;;5070248;28;8849;-77
2022/11/07 05:38:12;;;;;;;;;4.00;2.00;;;;;;;;5095748;28;8999;-77
2022/11/07 05:40:41;;;;;;;;;3.25;1.50;;;;;;;;5085856;28;8852;-79
2022/11/07 05:43:10;;;;;;;;;2.00;2.00;;;;;;;;5089430;28;8850;-77
2022/11/07 05:45:40;;;;;;;;;2.00;2.00;;;;;;;;5088642;28;8897;-77
2022/11/07 05:48:09;;;;;;;;;4.50;3.00;;;;;;;;5087073;28;9009;-76
2022/11/07 05:50:38;;;;;;;;;2.25;2.25;;;;;;;;5083681;28;8844;-77
2022/11/07 05:53:05;;;;;;;;;6.00;2.25;;;;;;;;5088658;28;8872;-77
2022/11/07 05:55:33;;;;;;;;;4.00;2.50;;;;;;;;5086246;28;8868;-77
2022/11/07 05:58:01;;;;;;;;;2.00;2.00;;;;;;;;5094166;28;8850;-77
2022/11/07 06:00:32;;;;;;;;;4.25;1.75;;;;;;;;5087940;28;8856;-76
2022/11/07 06:03:01;;;;;;;;;1.75;1.00;;;;;;;;5079776;28;8876;-77
2022/11/07 06:05:29;;;;;;;;;5.50;2.75;;;;;;;;5086199;28;8853;-77
2022/11/07 06:07:57;;;;;;;;;1.50;1.00;;;;;;;;5087435;28;8817;-76
2022/11/07 06:10:25;;;;;;;;;2.50;1.00;;;;;;;;5066227;28;8828;-77
2022/11/07 06:12:59;;;;;;;;;0.75;0.75;;;;;;;;5084172;28;8850;-77
2022/11/07 06:15:31;;;;;;;;;4.75;3.00;;;;;;;;5090596;28;8855;-78
2022/11/07 06:18:03;;;;;;;;;2.50;1.00;;;;;;;;5085422;28;8836;-76
2022/11/07 06:20:31;;;;;;;;;0.00;0.00;;;;;;;;5085650;28;9637;-77
2022/11/07 06:22:59;;;;;;;;;2.75;2.00;;;;;;;;5083793;28;8852;-77
2022/11/07 06:25:27;;;;;;;;;2.75;1.25;;;;;;;;5085505;28;8836;-77
2022/11/07 06:27:58;;;;;;;;;1.00;1.00;;;;;;;;5088442;28;8841;-77
2022/11/07 06:30:26;;;;;;;;;1.75;1.75;;;;;;;;5087465;28;8836;-76
2022/11/07 06:32:53;;;;;;;;;2.50;1.00;;;;;;;;5088529;28;8862;-77
2022/11/07 06:35:23;;;;;;;;;2.25;2.25;;;;;;;;5087635;28;8826;-77
2022/11/07 06:37:50;;;;;;;;;4.75;3.00;;;;;;;;5083736;28;8851;-77
2022/11/07 06:40:19;;;;;;;;;2.00;2.00;;;;;;;;5090351;28;8852;-76
2022/11/07 06:42:47;;;;;;;;;3.00;1.00;;;;;;;;5085464;28;8864;-75
2022/11/07 06:45:14;;;;;;;;;2.50;2.50;;;;;;;;5087756;28;8895;-73
2022/11/07 06:47:42;;;;;;;;;4.00;2.00;;;;;;;;5082384;28;8829;-73
2022/11/07 06:50:10;;;;;;;;;3.75;1.75;;;;;;;;5087339;28;8826;-73
2022/11/07 06:52:38;;;;;;;;;3.00;1.25;;;;;;;;5083571;28;8854;-72
2022/11/07 06:55:07;;;;;;;;;3.00;1.25;;;;;;;;5086305;28;8828;-72
2022/11/07 06:57:35;;;;;;;;;1.75;1.75;;;;;;;;5084775;28;8962;-73
2022/11/07 07:00:04;;;;;;;;;1.00;1.00;;;;;;;;5064243;28;9602;-73
2022/11/07 07:02:32;;;;;;;;;0.00;0.00;;;;;;;;5089467;28;8858;-73
2022/11/07 07:04:59;;;;;;;;;1.00;1.00;;;;;;;;5096097;27;8836;-72
2022/11/07 07:07:27;;;;;;;;;0.50;0.50;;;;;;;;5124634;27;8879;-73
2022/11/07 07:09:56;;;;;;;;;1.50;1.25;;;;;;;;5104560;27;9672;-73
2022/11/07 07:12:25;;;;;;;;;0.75;0.75;;;;;;;;5127753;27;8868;-73
2022/11/07 07:14:52;;;;;;;;;2.75;1.00;;;;;;;;5103410;27;9606;-73
2022/11/07 07:17:20;;;;;;;;;1.00;1.00;;;;;;;;5101586;27;8968;-73
2022/11/07 07:19:47;;;;;;;;;0.50;0.50;;;;;;;;5124720;27;8958;-73
2022/11/07 07:22:15;;;;;;;;;5.50;2.50;;;;;;;;5124779;27;8887;-73
2022/11/07 07:24:43;;;;;;;;;2.00;1.00;;;;;;;;5104452;27;8833;-73
2022/11/07 07:27:12;;;;;;;;;2.00;1.50;;;;;;;;5089783;27;8828;-72
2022/11/07 07:29:39;;;;;;;;;4.75;1.25;;;;;;;;5124339;27;9617;-73
2022/11/07 07:32:07;;;;;;;;;2.00;1.00;;;;;;;;5127219;27;8855;-72
2022/11/07 07:34:34;;;;;;;;;1.25;1.25;;;;;;;;5125002;27;8862;-73
2022/11/07 07:37:01;;;;;;;;;0.50;0.50;;;;;;;;5120272;27;8839;-73
2022/11/07 07:39:31;;;;;;;;;1.00;1.00;;;;;;;;5125505;27;8842;-73
2022/11/07 07:41:59;;;;;;;;;1.25;1.25;;;;;;;;5127902;27;8825;-73
2022/11/07 07:44:28;;;;;;;;;2.75;1.00;;;;;;;;5088239;27;8916;-73
2022/11/07 07:46:56;;;;;;;;;3.50;1.00;;;;;;;;5105678;27;8826;-73
2022/11/07 07:49:23;;;;;;;;;1.75;1.00;;;;;;;;5105825;27;8828;-73
2022/11/07 07:51:51;;;;;;;;;2.00;1.00;;;;;;;;5102200;27;8863;-72
2022/11/07 07:54:18;;;;;;;;;1.00;1.00;;;;;;;;5124543;27;8844;-72
2022/11/07 07:56:46;;;;;;;;;1.50;1.50;;;;;;;;5104009;27;8826;-72
2022/11/07 07:59:13;;;;;;;;;1.75;1.00;;;;;;;;5126010;27;8836;-72
2022/11/07 08:01:42;;;;;;;;;2.00;0.25;;;;;;;;5104428;27;8940;-72
2022/11/07 08:04:10;;;;;;;;;3.75;1.75;;;;;;;;5120332;27;8827;-74
2022/11/07 08:06:37;;;;;;;;;1.00;1.00;;;;;;;;5128796;27;8844;-72
2022/11/07 08:09:05;;;;;;;;;0.75;0.75;;;;;;;;5130875;27;8836;-76
2022/11/07 08:11:33;;;;;;;;;1.75;1.75;;;;;;;;5122338;27;8862;-75
2022/11/07 08:14:01;;;;;;;;;3.50;2.00;;;;;;;;5101661;27;8914;-74
2022/11/07 08:16:28;;;;;;;;;1.50;1.00;;;;;;;;5103629;27;8858;-75
2022/11/07 08:18:57;;;;;;;;;1.00;1.00;;;;;;;;5121262;27;8839;-75
2022/11/07 08:21:25;;;;;;;;;3.25;2.00;;;;;;;;5102785;27;8927;-75
2022/11/07 08:23:53;;;;;;;;;3.00;1.50;;;;;;;;5102792;27;9629;-75
2022/11/07 08:26:21;;;;;;;;;1.50;1.50;;;;;;;;5121374;27;8842;-73
2022/11/07 08:28:48;;;;;;;;;2.50;0.75;;;;;;;;5126885;27;8836;-74
2022/11/07 08:31:16;;;;;;;;;1.75;1.75;;;;;;;;5125149;27;8828;-74
2022/11/07 08:33:44;;;;;;;;;0.00;0.00;;;;;;;;5118912;27;8948;-74
2022/11/07 08:36:13;;;;;;;;;1.75;1.75;;;;;;;;5122266;27;8836;-74
2022/11/07 08:38:41;;;;;;;;;2.25;2.00;;;;;;;;5118533;27;8862;-73
2022/11/07 08:41:08;;;;;;;;;2.00;2.00;;;;;;;;5116056;27;8983;-73
2022/11/07 08:43:36;;;;;;;;;5.00;2.00;;;;;;;;5120674;27;8852;-72
2022/11/07 08:46:03;;;;;;;;;1.00;1.00;;;;;;;;5100971;27;8989;-74
2022/11/07 08:48:34;;;;;;;;;0.00;0.00;;;;;;;;5124886;27;8850;-72
2022/11/07 08:51:03;;;;;;;;;4.00;2.25;;;;;;;;5122160;27;8864;-73
2022/11/07 08:53:32;;;;;;;;;3.50;2.00;;;;;;;;5121742;27;8816;-70
2022/11/07 08:56:04;;;;;;;;;1.75;1.75;;;;;;;;5119816;27;8836;-74
2022/11/07 08:58:35;;;;;;;;;4.00;1.00;;;;;;;;5120075;27;8970;-73
2022/11/07 09:01:05;;;;;;;;;2.00;2.00;;;;;;;;5120100;27;8824;-71
2022/11/07 09:03:34;;;;;;;;;3.75;1.75;;;;;;;;5102263;27;8839;-71
2022/11/07 09:06:05;;;;;;;;;1.75;1.75;;;;;;;;5122630;27;8834;-72
2022/11/07 09:08:34;;;;;;;;;2.00;2.00;;;;;;;;5120407;27;9031;-72
2022/11/07 09:11:03;;;;;;;;;3.00;2.00;;;;;;;;5124184;27;8846;-72
2022/11/07 09:13:31;;;;;;;;;2.50;1.25;;;;;;;;5121678;27;8840;-73
2022/11/07 09:15:59;;;;;;;;;3.75;2.00;;;;;;;;5124992;27;8847;-70
2022/11/07 09:18:27;;;;;;;;;4.25;4.25;;;;;;;;5124624;27;8882;-72
2022/11/07 09:20:54;;;;;;;;;3.25;2.00;;;;;;;;5121253;27;8912;-72
2022/11/07 09:23:22;;;;;;;;;2.00;2.00;;;;;;;;5124233;27;8852;-72
2022/11/07 09:25:51;;;;;;;;;3.50;2.00;;;;;;;;5126555;27;8840;-72
2022/11/07 09:28:19;;;;;;;;;1.50;1.50;;;;;;;;5106042;27;8862;-73
2022/11/07 09:30:46;;;;;;;;;1.00;1.00;;;;;;;;5124362;27;8978;-73
2022/11/07 09:33:14;;;;;;;;;4.25;3.00;;;;;;;;5121163;27;8852;-73
2022/11/07 09:35:41;;;;;;;;;3.00;3.00;;;;;;;;5121259;27;8832;-73
2022/11/07 09:38:09;;;;;;;;;2.25;1.25;;;;;;;;5104357;27;8842;-75
2022/11/07 09:40:45;;;;;;;;;4.50;1.50;;;;;;;;5119533;27;8934;-71
2022/11/07 09:43:31;;;;;;;;;2.00;2.00;;;;;;;;5115195;27;8856;-72
2022/11/07 09:46:05;;;;;;;;;2.00;2.00;;;;;;;;5119657;27;8836;-72
2022/11/07 09:48:38;;;;;;;;;2.00;2.00;;;;;;;;5118227;27;9657;-72
2022/11/07 09:51:07;;;;;;;;;2.50;2.00;;;;;;;;5099488;27;8887;-72
2022/11/07 09:53:38;;;;;;;;;1.75;1.75;;;;;;;;5103146;27;9638;-71
2022/11/07 09:56:09;;;;;;;;;4.00;1.00;;;;;;;;5120422;27;8860;-70
2022/11/07 09:58:41;;;;;;;;;2.00;1.00;;;;;;;;5120269;27;10328;-71
2022/11/07 10:01:13;;;;;;;;;2.75;1.00;;;;;;;;5119205;27;8852;-71
2022/11/07 10:03:41;;;;;;;;;4.00;1.00;;;;;;;;5121484;27;8855;-71
2022/11/07 10:06:17;;;;;;;;;0.75;0.75;;;;;;;;5116600;27;8916;-70
2022/11/07 10:08:51;;;;;;;;;0.00;0.00;;;;;;;;5121952;27;8912;-71
2022/11/07 10:11:34;;;;;;;;;6.00;1.00;;;;;;;;5121121;27;8842;-72
2022/11/07 10:14:12;;;;;;;;;1.50;1.50;;;;;;;;5122106;27;8836;-71
2022/11/07 10:16:52;;;;;;;;;2.00;2.00;;;;;;;;5123782;27;8908;-72
2022/11/07 10:19:34;;;;;;;;;2.00;2.00;;;;;;;;5123209;27;8828;-72
2022/11/07 10:22:12;;;;;;;;;4.75;2.75;;;;;;;;5126513;27;8850;-70
2022/11/07 10:24:48;;;;;;;;;1.75;1.75;;;;;;;;5121055;27;8908;-71
2022/11/07 10:27:15;;;;;;;;;1.00;1.00;;;;;;;;5121179;27;8916;-71
2022/11/07 10:29:49;;;;;;;;;1.00;1.00;;;;;;;;5101729;27;8849;-70
2022/11/07 10:32:22;;;;;;;;;4.25;2.00;;;;;;;;5119892;27;8860;-71
2022/11/07 10:34:56;;;;;;;;;1.75;1.75;;;;;;;;5124286;27;8859;-71
2022/11/07 10:37:23;;;;;;;;;2.00;2.00;;;;;;;;5101798;27;8960;-71
2022/11/07 10:39:51;;;;;;;;;3.00;1.50;;;;;;;;5101910;27;8848;-71
2022/11/07 10:42:21;;;;;;;;;3.25;1.50;;;;;;;;5098147;27;8846;-71
2022/11/07 10:44:50;;;;;;;;;0.25;0.25;;;;;;;;5126570;27;9672;-71
2022/11/07 10:47:19;;;;;;;;;1.00;1.00;;;;;;;;5120192;27;8836;-71
2022/11/07 10:50:13;;;;;;;;;1.25;1.25;;;;;;;;5123168;27;8900;-71
2022/11/07 10:52:42;;;;;;;;;3.50;1.75;;;;;;;;5123436;27;8840;-70
2022/11/07 10:55:16;;;;;;;;;3.00;1.25;;;;;;;;5117614;27;8857;-70
2022/11/07 10:57:44;;;;;;;;;0.25;0.25;;;;;;;;5120391;27;9002;-71
2022/11/07 11:00:25;;;;;;;;;1.00;1.00;;;;;;;;5114223;27;9004;-71
2022/11/07 11:02:55;;;;;;;;;3.25;1.00;;;;;;;;5119795;27;8832;-70
2022/11/07 11:05:25;;;;;;;;;2.50;1.00;;;;;;;;5126864;27;8836;-70
2022/11/07 11:07:56;;;;;;;;;1.50;1.00;;;;;;;;5122107;27;8963;-71
2022/11/07 11:10:26;;;;;;;;;3.75;2.00;;;;;;;;5122454;27;8835;-71
2022/11/07 11:12:54;;;;;;;;;0.25;0.25;;;;;;;;5122870;27;8838;-73
2022/11/07 11:15:24;;;;;;;;;1.00;1.00;;;;;;;;5119831;27;8834;-74
2022/11/07 11:18:01;;;;;;;;;0.50;0.50;;;;;;;;5116719;27;8878;-74
2022/11/07 11:20:38;;;;;;;;;0.00;0.00;;;;;;;;5121722;27;8833;-76
2022/11/07 11:23:14;;;;;;;;;2.25;0.25;;;;;;;;5119578;27;8827;-77
2022/11/07 11:25:45;;;;;;;;;2.25;1.00;;;;;;;;5120961;27;8967;-76
2022/11/07 11:28:21;;;;;;;;;3.25;1.00;;;;;;;;5123504;27;8994;-73
2022/11/07 11:30:55;;;;;;;;;1.00;1.00;;;;;;;;5117881;27;8826;-75
2022/11/07 11:33:27;;;;;;;;;1.00;1.00;;;;;;;;5122425;27;8823;-76
2022/11/07 11:35:57;;;;;;;;;0.00;0.00;;;;;;;;5117796;27;8866;-76
2022/11/07 11:38:28;;;;;;;;;3.00;1.25;;;;;;;;5116915;27;8864;-76
2022/11/07 11:40:58;;;;;;;;;5.25;2.75;;;;;;;;5123254;27;8823;-76
2022/11/07 11:43:27;;;;;;;;;3.00;1.25;;;;;;;;5122289;27;8872;-75
2022/11/07 11:46:11;;;;;;;;;3.00;2.00;;;;;;;;5120380;27;8956;-74
2022/11/07 11:48:44;;;;;;;;;1.25;1.25;;;;;;;;5120145;27;8831;-76
2022/11/07 11:51:19;;;;;;;;;2.50;1.00;;;;;;;;5119704;27;8832;-75
2022/11/07 11:53:46;;;;;;;;;1.50;1.25;;;;;;;;5122248;27;8934;-74
2022/11/07 11:56:27;;;;;;;;;2.00;2.00;;;;;;;;5095233;27;9661;-77
2022/11/07 11:59:01;;;;;;;;;2.50;1.50;;;;;;;;5118818;27;8797;-77
2022/11/07 12:01:38;;;;;;;;;1.75;1.75;;;;;;;;5119260;27;8854;-75
2022/11/07 12:04:33;;;;;;;;;1.00;1.00;;;;;;;;5099721;27;8907;-74
2022/11/07 12:07:07;;;;;;;;;1.25;0.50;;;;;;;;5088557;27;8869;-75
2022/11/07 12:09:41;;;;;;;;;3.00;2.00;;;;;;;;5122552;27;8828;-78
2022/11/07 12:12:24;;;;;;;;;1.25;1.25;;;;;;;;5103279;27;8858;-77
2022/11/07 12:15:27;;;;;;;;;3.50;1.50;;;;;;;;5121982;27;8862;-77
2022/11/07 12:17:59;;;;;;;;;1.50;1.50;;;;;;;;5119837;27;8831;-77
2022/11/07 12:20:30;;;;;;;;;0.25;0.25;;;;;;;;5116080;27;8834;-73
2022/11/07 12:23:13;;;;;;;;;1.00;1.00;;;;;;;;5120008;27;9564;-75
2022/11/07 12:25:45;;;;;;;;;2.75;1.00;;;;;;;;5116958;27;9676;-72
2022/11/07 12:28:31;;;;;;;;;1.50;1.50;;;;;;;;5119780;27;8844;-73
2022/11/07 12:31:06;;;;;;;;;3.50;2.25;;;;;;;;5117337;27;8828;-73
2022/11/07 12:33:40;;;;;;;;;1.00;1.00;;;;;;;;5120719;27;8951;-74
2022/11/07 12:36:15;;;;;;;;;1.00;1.00;;;;;;;;5121155;27;8845;-74
2022/11/07 12:39:04;;;;;;;;;5.75;1.25;;;;;;;;5123357;27;8856;-73
2022/11/07 12:41:39;;;;;;;;;1.00;1.00;;;;;;;;5120167;27;8870;-73
2022/11/07 12:44:22;;;;;;;;;3.00;1.00;;;;;;;;5111523;27;8881;-73
2022/11/07 12:46:53;;;;;;;;;1.00;1.00;;;;;;;;5114529;27;8868;-73
2022/11/07 12:49:40;;;;;;;;;1.75;1.75;;;;;;;;5120904;27;8846;-73
2022/11/07 12:52:18;;;;;;;;;1.75;1.75;;;;;;;;5122849;27;8876;-73
2022/11/07 12:54:52;;;;;;;;;5.00;2.00;;;;;;;;5119578;27;8855;-73
2022/11/07 12:57:22;;;;;;;;;3.00;3.00;;;;;;;;5122138;27;8833;-74
2022/11/07 12:59:53;;;;;;;;;1.50;1.00;;;;;;;;5123957;27;8844;-73
2022/11/07 13:02:33;;;;;;;;;1.00;1.00;;;;;;;;5119875;27;9714;-72
2022/11/07 13:05:15;;;;;;;;;2.25;1.00;;;;;;;;5118496;27;8860;-74
2022/11/07 13:07:48;;;;;;;;;2.00;1.00;;;;;;;;5117920;27;8852;-71
2022/11/07 13:10:22;;;;;;;;;3.00;1.75;;;;;;;;5120578;27;8841;-70
2022/11/07 13:12:55;;;;;;;;;2.00;1.00;;;;;;;;5102909;27;8958;-73
2022/11/07 13:15:24;;;;;;;;;1.50;1.00;;;;;;;;5104641;27;9034;-72
2022/11/07 13:17:52;;;;;;;;;1.00;1.00;;;;;;;;5127300;27;8874;-72
2022/11/07 13:20:31;;;;;;;;;1.50;1.50;;;;;;;;5123593;27;8971;-71
2022/11/07 13:23:00;;;;;;;;;0.75;0.75;;;;;;;;5123458;27;8866;-73
2022/11/07 13:25:32;;;;;;;;;2.50;1.25;;;;;;;;5124625;27;8967;-72
2022/11/07 13:28:06;;;;;;;;;1.00;1.00;;;;;;;;5103772;27;8930;-72
2022/11/07 13:30:36;;;;;;;;;2.00;1.00;;;;;;;;5117374;27;8852;-74
2022/11/07 13:33:07;;;;;;;;;2.00;2.00;;;;;;;;5126195;27;8851;-77
2022/11/07 13:35:38;;;;;;;;;1.00;1.00;;;;;;;;5104880;27;8872;-73
2022/11/07 13:38:11;;;;;;;;;3.00;1.00;;;;;;;;5127286;27;8862;-73
2022/11/07 13:40:40;;;;;;;;;2.75;1.25;;;;;;;;5121679;27;8848;-73
2022/11/07 13:43:14;;;;;;;;;1.00;1.00;;;;;;;;5119186;27;8847;-73
2022/11/07 13:45:46;;;;;;;;;4.25;3.00;;;;;;;;5126685;27;8859;-73
2022/11/07 13:48:18;;;;;;;;;3.00;2.00;;;;;;;;5102848;27;8974;-72
2022/11/07 13:50:53;;;;;;;;;2.00;2.00;;;;;;;;5123661;27;9642;-72
2022/11/07 13:53:26;;;;;;;;;3.00;1.50;;;;;;;;5120325;27;8850;-73
2022/11/07 13:56:01;;;;;;;;;1.00;1.00;;;;;;;;5122424;27;9587;-73
2022/11/07 13:58:30;;;;;;;;;1.00;1.00;;;;;;;;5119189;27;8853;-73
2022/11/07 14:01:04;;;;;;;;;1.75;1.75;;;;;;;;5123612;27;8856;-73
2022/11/07 14:03:32;;;;;;;;;1.00;1.00;;;;;;;;5099741;27;9754;-74
2022/11/07 14:06:05;;;;;;;;;0.50;0.50;;;;;;;;5121575;27;9682;-73
2022/11/07 14:08:36;;;;;;;;;0.50;0.50;;;;;;;;5117626;27;8834;-73
2022/11/07 14:11:04;;;;;;;;;1.00;1.00;;;;;;;;5123130;27;8850;-73
2022/11/07 14:13:34;;;;;;;;;0.25;0.00;;;;;;;;5125691;27;8932;-72
2022/11/07 14:16:03;;;;;;;;;0.75;0.75;;;;;;;;5121585;27;8858;-71
2022/11/07 14:18:33;;;;;;;;;1.50;1.00;;;;;;;;5105252;27;8943;-71
2022/11/07 14:21:03;;;;;;;;;1.00;1.00;;;;;;;;5118787;27;8818;-72
2022/11/07 14:23:32;;;;;;;;;2.00;1.75;;;;;;;;5121671;27;8839;-72
2022/11/07 14:26:01;;;;;;;;;2.00;1.00;;;;;;;;5118305;27;8860;-73
2022/11/07 14:28:36;;;;;;;;;3.00;1.75;;;;;;;;5121087;27;8844;-73
2022/11/07 14:31:06;;;;;;;;;0.75;0.75;;;;;;;;5119486;27;8856;-74
2022/11/07 14:33:34;;;;;;;;;3.00;2.00;;;;;;;;5116231;27;8834;-74
2022/11/07 14:36:06;;;;;;;;;0.00;0.00;;;;;;;;5122982;27;8811;-73
2022/11/07 14:38:33;;;;;;;;;3.75;1.50;;;;;;;;5119189;27;8919;-74
2022/11/07 14:41:03;;;;;;;;;2.75;1.50;;;;;;;;5120651;27;8822;-74
2022/11/07 14:43:32;;;;;;;;;1.00;1.00;;;;;;;;5120050;27;8812;-73
2022/11/07 14:46:03;;;;;;;;;3.25;2.00;;;;;;;;5123982;27;8853;-73
2022/11/07 14:48:32;;;;;;;;;3.25;2.00;;;;;;;;5114812;27;8916;-73
2022/11/07 14:51:01;;;;;;;;;3.00;1.00;;;;;;;;5101801;27;8826;-72
2022/11/07 14:53:32;;;;;;;;;3.00;1.00;;;;;;;;5116416;27;9638;-74
2022/11/07 14:56:04;;;;;;;;;1.75;1.25;;;;;;;;5120545;27;8840;-73
2022/11/07 14:58:32;;;;;;;;;1.50;1.50;;;;;;;;5122001;27;8839;-73
2022/11/07 15:01:10;;;;;;;;;2.00;0.75;;;;;;;;5123321;27;8824;-73
2022/11/07 15:03:50;;;;;;;;;0.00;0.00;;;;;;;;5117013;27;8869;-74
2022/11/07 15:06:23;;;;;;;;;0.00;0.00;;;;;;;;5120585;27;8836;-74
2022/11/07 15:08:59;;;;;;;;;2.00;2.00;;;;;;;;5119684;27;8852;-74
2022/11/07 15:11:33;;;;;;;;;1.75;1.75;;;;;;;;5119971;27;8867;-73
2022/11/07 15:14:02;;;;;;;;;1.50;1.00;;;;;;;;5115734;27;8863;-72
2022/11/07 15:16:34;;;;;;;;;3.00;1.50;;;;;;;;5103124;27;8828;-74
2022/11/07 15:19:03;;;;;;;;;1.75;1.00;;;;;;;;5118551;27;8874;-74
2022/11/07 15:21:33;;;;;;;;;2.00;2.00;;;;;;;;5115850;27;8861;-73
2022/11/07 15:24:32;;;;;;;;;0.25;0.25;;;;;;;;5118683;27;8829;-74
2022/11/07 15:27:01;;;;;;;;;5.25;2.00;;;;;;;;5102072;27;8967;-74